< < Back
Terminal Aerodrome Forecast


Current Version              Previous Versions:   1  2  3  4  5  6  7  8  9  

Terminal Aerodrome Forecast

098
FTUS42 KMLB 301100
TAFMCO
TAF
KMCO 301140Z 3012/3112 27005KT P6SM SCT250
     FM301600 29010G15KT P6SM SCT040 BKN140
      TEMPO 3017/3020 P6SM BKN035
     FM302000 33013G20KT P6SM SCT040 BKN250
     FM310100 35009KT P6SM SCT250=



Latest METAR

315
SAUS70 KWBC 301200 RRB
MTRMCO
METAR KMCO 301153Z 00000KT 10SM FEW250 08/07 A3020 RMK AO2 SLP226
T00780067 10111 20078 50005


USA.gov is the U.S. government's official web portal to all federal, state and local government web resources and services.